Lantana, FL

8:17 PM EDT on August 28, 2015 (GMT -0400)
Lantana | | Change Station
CLOSE
Current Station
Personal Weather Station
Location: Lantana, FL
Elevation: 16 ft
Nearby Weather Stations

Elev 16 ft 26.58 °N, 80.06 °W | Updated 2 minutes ago

Mostly Cloudy
Mostly Cloudy
80.7 °F
Feels Like 86 °F
N
0.0
Wind Variable Wind from ESE
Gusts 0.0 mph

Today
High -- | Low -- °F
--% Chance of Precip.
Yesterday
High -- | Low -- °F
Precip. -- in
6:58 AM 7:44 PM
Waxing Gibbous, 99% visible
Pressure 30.03 in
Visibility 10.0 miles
Clouds Few 2100 ft
Scattered Clouds 9000 ft
Mostly Cloudy 22000 ft
Heat Index 86 °F
Dew Point 75 °F
Humidity 82%
Rainfall 0.22 in
Snow Depth Not available.
UV 0 out of 12
Pollen 2.10 out of 12
Air Quality Not available.
Flu Activity Not available.
METAR KPBI 282353Z 12007KT 10SM FEW021 SCT090 BKN220 27/23 A3003 RMK AO2 SLP167 CB DSNT S SW-W 60006 T02720233 10300 20233 53006
Pressure 30.03 in
Visibility 10.0 miles
Clouds Few 2100 ft
Scattered Clouds 9000 ft
Mostly Cloudy 22000 ft
Heat Index 86 °F
Dew Point 75 °F
Humidity 82%
Rainfall 0.22 in
Snow Depth Not available.
UV 0 out of 12
Pollen 2.10 out of 12
Air Quality Not available.
Flu Activity Not available.
METAR KPBI 282353Z 12007KT 10SM FEW021 SCT090 BKN220 27/23 A3003 RMK AO2 SLP167 CB DSNT S SW-W 60006 T02720233 10300 20233 53006
Erika has become very unorganized in the face of strong wind shear in the eastern Caribbean Sea. The storm will pass directly over mountainous Hispaniola today, likely weakening it further. If the storm remains intact, it could reach an area favorable for strengthening before moving onto Florida by early next week. Follow the live blog

Nowcast | as of 7:52 PM EDT on August 28, 2015

Scattered showers and isolated thunderstorms will continue over much of South Florida early this evening. Torrential downpours...frequent lightning...and wind gusts to 35 mph are possible.

×

10-Day Weather Forecast

×

Almanac

Astronomy

Aug. 28, 2015 Rise Set
Actual Time
Civil Twilight
Nautical Twilight
Astronomical Twilight
Moon
Length of Visible Light
Length of Day
Tomorrow will be .
, % of the Moon is Illuminated

Today's Extremes

State Highs State Lows

Community

WunderPhotos

Upload Photos

1,850,543 photos uploaded!

WunderBlogs® & News

Nearby

Air Quality

  Air Quality AQ Index Pollutant
Not available.

Snow Depth

Station Depth Elevation

Earthquake Activity

City Distance Mag. Time & Date
Minimum magnitude displayed is 2.5.

Coastal Water Temperatures

Place Temperature

Stations

Nearby Weather Stations

Station Location Temp. Windchill Dew Point Humidity Wind Precip. Elev Updated Type